createdAt,value
2023-05-06T00:00:44.256Z,100.00
2023-05-06T00:03:14.838Z,100.00
2023-05-06T00:05:42.563Z,100.00
2023-05-06T00:08:10.072Z,100.00
2023-05-06T00:10:37.391Z,100.00
2023-05-06T00:13:04.997Z,100.00
2023-05-06T00:15:32.436Z,98.60
2023-05-06T00:18:01.311Z,96.94
2023-05-06T00:20:29.260Z,95.68
2023-05-06T00:22:56.834Z,91.76
2023-05-06T00:25:24.089Z,89.10
2023-05-06T00:27:51.690Z,86.63
2023-05-06T00:30:19.656Z,84.06
2023-05-06T00:32:47.160Z,81.94
2023-05-06T00:35:14.508Z,80.24
2023-05-06T00:37:45.684Z,80.53
2023-05-06T00:40:14.374Z,78.34
2023-05-06T00:42:41.951Z,78.10
2023-05-06T00:45:09.980Z,77.63
2023-05-06T00:47:37.916Z,77.89
2023-05-06T00:50:05.713Z,76.30
2023-05-06T00:52:34.728Z,76.29
2023-05-06T00:55:02.164Z,76.16
2023-05-06T00:57:29.719Z,75.24
2023-05-06T00:59:57.040Z,73.33
2023-05-06T01:02:30.734Z,73.31
2023-05-06T01:05:04.237Z,70.07
2023-05-06T01:07:46.623Z,71.47
2023-05-06T01:10:43.217Z,70.13
2023-05-06T01:13:41.701Z,68.90
2023-05-06T01:16:12.769Z,69.68
2023-05-06T01:18:43.078Z,67.85
2023-05-06T01:21:12.804Z,68.73
2023-05-06T01:23:53.443Z,69.10
2023-05-06T01:26:21.122Z,68.26
2023-05-06T01:28:48.866Z,67.43
2023-05-06T01:31:30.169Z,68.76
2023-05-06T01:34:21.148Z,68.22
2023-05-06T01:36:54.474Z,67.53
2023-05-06T01:39:26.318Z,67.44
2023-05-06T01:41:57.477Z,67.22
2023-05-06T01:44:27.912Z,66.95
2023-05-06T01:46:56.667Z,65.02
2023-05-06T01:49:26.342Z,65.27
2023-05-06T01:51:54.034Z,64.94
2023-05-06T01:54:21.624Z,64.38
2023-05-06T01:56:48.816Z,65.09
2023-05-06T01:59:16.409Z,65.06
2023-05-06T02:01:43.747Z,64.44
2023-05-06T02:04:11.369Z,62.75
2023-05-06T02:06:38.678Z,62.55
2023-05-06T02:09:06.674Z,63.45
2023-05-06T02:11:38.948Z,62.84
2023-05-06T02:14:08.134Z,64.38
2023-05-06T02:16:36.453Z,63.05
2023-05-06T02:19:04.117Z,63.60
2023-05-06T02:21:32.104Z,62.07
2023-05-06T02:23:59.616Z,64.51
2023-05-06T02:26:26.869Z,63.83
2023-05-06T02:28:54.457Z,63.72
2023-05-06T02:31:21.673Z,63.16
2023-05-06T02:33:49.143Z,63.22
2023-05-06T02:36:16.457Z,63.25
2023-05-06T02:38:44.017Z,63.79
2023-05-06T02:41:11.345Z,64.54
2023-05-06T02:43:38.824Z,64.45
2023-05-06T02:46:06.088Z,65.03
2023-05-06T02:48:33.652Z,66.02
2023-05-06T02:51:02.133Z,65.34
2023-05-06T02:53:29.696Z,65.70
2023-05-06T02:55:56.956Z,66.48
2023-05-06T02:58:24.725Z,67.02
2023-05-06T03:00:52.254Z,65.22
2023-05-06T03:03:19.820Z,66.73
2023-05-06T03:05:47.055Z,64.65
2023-05-06T03:08:14.721Z,64.55
2023-05-06T03:10:41.951Z,66.79
2023-05-06T03:13:09.676Z,66.15
2023-05-06T03:15:37.420Z,65.78
2023-05-06T03:18:05.146Z,64.59
2023-05-06T03:20:32.614Z,63.14
2023-05-06T03:23:01.568Z,62.33
2023-05-06T03:25:29.628Z,61.88
2023-05-06T03:27:57.617Z,62.28
2023-05-06T03:30:24.947Z,60.28
2023-05-06T03:32:56.665Z,54.59
2023-05-06T03:35:29.957Z,56.32
2023-05-06T03:38:00.033Z,57.22
2023-05-06T03:40:34.175Z,55.00
2023-05-06T03:43:01.932Z,56.30
2023-05-06T03:45:29.161Z,56.79
2023-05-06T03:47:59.361Z,56.94
2023-05-06T03:50:27.300Z,56.32
2023-05-06T03:52:55.700Z,54.29
2023-05-06T03:55:25.331Z,54.08
2023-05-06T03:57:52.839Z,55.12
2023-05-06T04:00:21.406Z,54.79
2023-05-06T04:02:53.210Z,56.85
2023-05-06T04:05:27.340Z,54.41
2023-05-06T04:07:55.501Z,54.16
2023-05-06T04:10:22.774Z,53.75
2023-05-06T04:12:53.148Z,52.60
2023-05-06T04:15:25.798Z,52.51
2023-05-06T04:17:53.371Z,51.91
2023-05-06T04:20:21.754Z,51.70
2023-05-06T04:22:49.376Z,52.83
2023-05-06T04:25:19.656Z,51.79
2023-05-06T04:27:47.751Z,51.81
2023-05-06T04:30:15.308Z,51.85
2023-05-06T04:32:43.558Z,51.95
2023-05-06T04:35:11.497Z,51.73
2023-05-06T04:37:41.442Z,51.82
2023-05-06T04:40:13.928Z,52.16
2023-05-06T04:42:43.981Z,52.79
2023-05-06T04:45:18.095Z,52.14
2023-05-06T04:47:49.154Z,51.90
2023-05-06T04:50:18.225Z,51.88
2023-05-06T04:52:46.012Z,52.25
2023-05-06T04:55:14.533Z,51.39
2023-05-06T04:57:47.493Z,50.71
2023-05-06T05:00:16.608Z,50.25
2023-05-06T05:02:44.182Z,51.57
2023-05-06T05:05:12.638Z,51.08
2023-05-06T05:07:42.010Z,53.23
2023-05-06T05:10:10.518Z,51.86
2023-05-06T05:12:39.295Z,50.65
2023-05-06T05:15:07.340Z,52.05
2023-05-06T05:17:35.004Z,51.48
2023-05-06T05:20:03.268Z,53.74
2023-05-06T05:22:32.387Z,51.26
2023-05-06T05:25:00.532Z,52.86
2023-05-06T05:27:28.312Z,54.01
2023-05-06T05:29:57.528Z,52.65
2023-05-06T05:32:25.173Z,52.92
2023-05-06T05:34:53.190Z,52.18
2023-05-06T05:37:20.954Z,54.17
2023-05-06T05:39:48.688Z,53.80
2023-05-06T05:42:17.440Z,53.00
2023-05-06T05:44:46.444Z,51.04
2023-05-06T05:47:15.020Z,49.51
2023-05-06T05:49:42.588Z,51.09
2023-05-06T05:52:10.781Z,52.80
2023-05-06T05:54:38.321Z,52.98
2023-05-06T05:57:07.066Z,53.19
2023-05-06T05:59:34.816Z,53.49
2023-05-06T06:02:05.365Z,51.14
2023-05-06T06:04:33.069Z,50.27
2023-05-06T06:07:02.121Z,49.54
2023-05-06T06:09:32.007Z,48.71
2023-05-06T06:12:02.064Z,50.41
2023-05-06T06:14:31.082Z,50.33
2023-05-06T06:16:58.861Z,49.28
2023-05-06T06:19:26.312Z,52.13
2023-05-06T06:21:53.920Z,51.08
2023-05-06T06:24:21.225Z,50.12
2023-05-06T06:26:48.791Z,49.94
2023-05-06T06:29:16.133Z,48.99
2023-05-06T06:31:43.620Z,49.10
2023-05-06T06:34:12.709Z,46.83
2023-05-06T06:36:45.152Z,48.22
2023-05-06T06:39:12.997Z,47.15
2023-05-06T06:41:40.692Z,45.44
2023-05-06T06:44:07.924Z,44.62
2023-05-06T06:46:35.469Z,46.13
2023-05-06T06:49:02.640Z,46.51
2023-05-06T06:51:31.482Z,47.70
2023-05-06T06:53:58.714Z,47.27
2023-05-06T06:56:26.411Z,47.53
2023-05-06T06:58:53.681Z,47.59
2023-05-06T07:01:21.433Z,47.35
2023-05-06T07:03:48.678Z,49.41
2023-05-06T07:06:16.295Z,48.94
2023-05-06T07:08:43.569Z,50.39
2023-05-06T07:11:12.229Z,51.04
2023-05-06T07:13:39.535Z,51.74
2023-05-06T07:16:07.053Z,51.60
2023-05-06T07:18:34.220Z,52.34
2023-05-06T07:21:01.924Z,49.32
2023-05-06T07:23:31.198Z,48.04
2023-05-06T07:25:59.921Z,48.66
2023-05-06T07:28:27.508Z,48.64
2023-05-06T07:30:55.857Z,48.83
2023-05-06T07:33:23.092Z,49.04
2023-05-06T07:35:50.553Z,52.33
2023-05-06T07:38:18.181Z,49.68
2023-05-06T07:40:45.884Z,48.28
2023-05-06T07:43:13.144Z,50.26
2023-05-06T07:45:41.215Z,51.17
2023-05-06T07:48:08.497Z,49.44
2023-05-06T07:50:36.173Z,50.18
2023-05-06T07:53:04.140Z,51.16
2023-05-06T07:55:33.833Z,48.82
2023-05-06T07:58:02.301Z,48.49
2023-05-06T08:00:29.758Z,46.59
2023-05-06T08:02:57.062Z,45.62
2023-05-06T08:05:24.626Z,45.23
2023-05-06T08:07:51.949Z,45.08
2023-05-06T08:10:20.018Z,45.75
2023-05-06T08:12:47.217Z,47.22
2023-05-06T08:15:14.913Z,46.25
2023-05-06T08:17:42.274Z,46.73
2023-05-06T08:20:10.634Z,47.73
2023-05-06T08:22:37.914Z,49.13
2023-05-06T08:25:05.889Z,49.41
2023-05-06T08:27:33.207Z,48.90
2023-05-06T08:30:00.722Z,49.38
2023-05-06T08:32:27.983Z,49.60
2023-05-06T08:34:56.143Z,50.08
2023-05-06T08:37:23.356Z,49.48
2023-05-06T08:39:51.067Z,55.74
2023-05-06T08:42:18.426Z,49.95
2023-05-06T08:44:46.080Z,46.23
2023-05-06T08:47:13.310Z,43.65
2023-05-06T08:49:40.874Z,44.70
2023-05-06T08:52:09.000Z,46.73
2023-05-06T08:54:37.161Z,49.79
2023-05-06T08:57:10.280Z,49.58
2023-05-06T08:59:40.255Z,47.58
2023-05-06T09:02:08.507Z,52.73
2023-05-06T09:04:37.161Z,46.85
2023-05-06T09:07:04.737Z,47.43
2023-05-06T09:09:31.961Z,47.80
2023-05-06T09:12:01.909Z,51.16
2023-05-06T09:14:29.101Z,48.89
2023-05-06T09:16:56.663Z,48.46
2023-05-06T09:19:25.798Z,49.86
2023-05-06T09:21:53.396Z,52.17
2023-05-06T09:24:21.366Z,52.45
2023-05-06T09:26:48.891Z,52.86
2023-05-06T09:29:16.288Z,51.82
2023-05-06T09:31:46.538Z,52.44
2023-05-06T09:34:15.264Z,53.98
2023-05-06T09:36:43.144Z,53.95
2023-05-06T09:39:10.547Z,53.75
2023-05-06T09:41:38.462Z,51.75
2023-05-06T09:44:06.323Z,52.50
2023-05-06T09:46:34.603Z,53.01
2023-05-06T09:49:02.138Z,53.38
2023-05-06T09:51:31.147Z,52.47
2023-05-06T09:54:00.907Z,53.20
2023-05-06T09:56:30.833Z,52.55
2023-05-06T09:59:01.500Z,54.06
2023-05-06T10:01:36.686Z,52.71
2023-05-06T10:04:09.100Z,49.26
2023-05-06T10:06:39.855Z,49.95
2023-05-06T10:09:09.350Z,51.69
2023-05-06T10:11:37.210Z,51.55
2023-05-06T10:14:05.348Z,52.07
2023-05-06T10:16:37.892Z,49.86
2023-05-06T10:19:08.093Z,49.60
2023-05-06T10:21:39.862Z,49.36
2023-05-06T10:24:11.481Z,48.59
2023-05-06T10:26:39.327Z,48.43
2023-05-06T10:29:11.237Z,47.90
2023-05-06T10:31:44.996Z,51.14
2023-05-06T10:34:12.398Z,50.41
2023-05-06T10:36:42.616Z,50.44
2023-05-06T10:39:13.743Z,51.58
2023-05-06T10:41:41.682Z,51.76
2023-05-06T10:44:10.223Z,51.07
2023-05-06T10:46:57.306Z,50.12
2023-05-06T10:49:24.920Z,50.98
2023-05-06T10:52:14.841Z,50.38
2023-05-06T10:54:53.001Z,50.57
2023-05-06T10:57:27.353Z,51.80
2023-05-06T10:59:55.637Z,51.68
2023-05-06T11:02:24.203Z,50.48
2023-05-06T11:04:53.302Z,50.75
2023-05-06T11:07:24.620Z,51.21
2023-05-06T11:09:59.613Z,52.31
2023-05-06T11:12:50.101Z,52.53
2023-05-06T11:15:24.084Z,51.19
2023-05-06T11:17:53.348Z,49.23
2023-05-06T11:20:26.065Z,51.35
2023-05-06T11:22:54.646Z,51.43
2023-05-06T11:25:47.256Z,53.12
2023-05-06T11:28:15.529Z,52.46
2023-05-06T11:30:44.331Z,51.27
2023-05-06T11:33:21.783Z,53.62
2023-05-06T11:35:49.317Z,50.60
2023-05-06T11:38:17.006Z,51.15
2023-05-06T11:40:44.508Z,52.02
2023-05-06T11:43:16.609Z,51.22
2023-05-06T11:45:43.717Z,52.30
2023-05-06T11:48:15.503Z,55.17
2023-05-06T11:50:47.566Z,55.50
2023-05-06T11:53:19.153Z,56.39
2023-05-06T11:55:47.201Z,57.29
2023-05-06T11:58:16.783Z,56.92
2023-05-06T12:00:53.592Z,58.66
2023-05-06T12:03:21.979Z,56.74
2023-05-06T12:05:50.924Z,58.23
2023-05-06T12:08:27.275Z,57.21
2023-05-06T12:10:58.536Z,57.69
2023-05-06T12:13:27.218Z,57.41
2023-05-06T12:15:55.580Z,58.60
2023-05-06T12:18:24.430Z,57.02
2023-05-06T12:20:55.625Z,58.79
2023-05-06T12:23:23.253Z,57.61
2023-05-06T12:26:08.373Z,57.11
2023-05-06T12:28:37.091Z,57.24
2023-05-06T12:31:20.972Z,57.00
2023-05-06T12:33:50.183Z,55.62
2023-05-06T12:36:18.440Z,53.23
2023-05-06T12:38:52.742Z,51.70
2023-05-06T12:41:21.486Z,50.57
2023-05-06T12:43:49.480Z,49.28
2023-05-06T12:46:17.274Z,50.40
2023-05-06T12:49:01.863Z,49.92
2023-05-06T12:51:31.046Z,49.68
2023-05-06T12:53:58.726Z,49.78
2023-05-06T12:56:26.213Z,50.22
2023-05-06T12:59:01.213Z,51.21
2023-05-06T13:01:28.567Z,52.04
2023-05-06T13:03:59.218Z,53.33
2023-05-06T13:06:26.489Z,52.19
2023-05-06T13:08:54.012Z,51.38
2023-05-06T13:11:22.355Z,51.11
2023-05-06T13:13:49.971Z,51.05
2023-05-06T13:16:17.408Z,48.42
2023-05-06T13:18:44.968Z,50.09
2023-05-06T13:21:14.117Z,49.02
2023-05-06T13:23:47.060Z,49.52
2023-05-06T13:26:14.774Z,49.10
2023-05-06T13:28:42.377Z,49.46
2023-05-06T13:31:10.024Z,50.92
2023-05-06T13:33:37.803Z,50.26
2023-05-06T13:36:05.732Z,49.75
2023-05-06T13:38:33.354Z,51.63
2023-05-06T13:41:00.617Z,50.61
2023-05-06T13:43:28.149Z,51.75
2023-05-06T13:45:55.683Z,52.53
2023-05-06T13:48:23.190Z,52.08
2023-05-06T13:50:50.759Z,53.07
2023-05-06T13:53:18.577Z,52.24
2023-05-06T13:55:47.075Z,51.38
2023-05-06T13:58:14.760Z,50.84
2023-05-06T14:00:42.145Z,49.07
2023-05-06T14:03:09.954Z,50.19
2023-05-06T14:05:37.657Z,49.47
2023-05-06T14:08:05.610Z,51.24
2023-05-06T14:10:32.920Z,51.60
2023-05-06T14:13:00.460Z,51.60
2023-05-06T14:15:27.863Z,52.38
2023-05-06T14:17:55.541Z,51.63
2023-05-06T14:20:22.937Z,52.05
2023-05-06T14:22:50.478Z,51.54
2023-05-06T14:25:17.741Z,56.40
2023-05-06T14:27:45.656Z,55.75
2023-05-06T14:30:13.406Z,54.73
2023-05-06T14:32:41.054Z,54.07
2023-05-06T14:35:09.165Z,54.47
2023-05-06T14:37:37.912Z,54.23
2023-05-06T14:40:06.309Z,55.16
2023-05-06T14:42:35.812Z,53.59
2023-05-06T14:45:03.237Z,53.26
2023-05-06T14:47:31.013Z,55.07
2023-05-06T14:49:58.394Z,56.13
2023-05-06T14:52:25.998Z,55.11
2023-05-06T14:54:53.254Z,54.69
2023-05-06T14:57:21.806Z,55.56
2023-05-06T14:59:50.507Z,58.06
2023-05-06T15:02:18.242Z,58.61
2023-05-06T15:04:46.144Z,57.85
2023-05-06T15:07:13.644Z,57.41
2023-05-06T15:09:43.957Z,58.06
2023-05-06T15:12:11.548Z,59.59
2023-05-06T15:14:39.877Z,59.45
2023-05-06T15:17:07.795Z,58.39
2023-05-06T15:19:35.250Z,58.05
2023-05-06T15:22:03.561Z,57.87
2023-05-06T15:24:30.747Z,57.93
2023-05-06T15:26:58.338Z,59.68
2023-05-06T15:29:25.632Z,60.47
2023-05-06T15:31:53.231Z,60.13
2023-05-06T15:34:20.882Z,59.25
2023-05-06T15:36:53.382Z,60.90
2023-05-06T15:39:20.993Z,60.09
2023-05-06T15:41:48.636Z,61.04
2023-05-06T15:44:16.339Z,61.68
2023-05-06T15:46:44.096Z,60.47
2023-05-06T15:51:41.800Z,61.33
2023-05-06T15:54:09.047Z,62.25
2023-05-06T15:56:40.685Z,61.20
2023-05-06T15:59:09.107Z,63.04
2023-05-06T16:02:16.650Z,63.49
2023-05-06T16:04:24.451Z,63.97
2023-05-06T16:06:52.411Z,65.70
2023-05-06T16:09:19.659Z,64.81
2023-05-06T16:11:47.295Z,63.92
2023-05-06T16:14:14.625Z,62.54
2023-05-06T16:16:42.141Z,63.24
2023-05-06T16:19:09.557Z,65.26
2023-05-06T16:21:37.556Z,67.92
2023-05-06T16:24:04.991Z,66.43
2023-05-06T16:26:32.630Z,67.03
2023-05-06T16:29:01.522Z,67.10
2023-05-06T16:31:29.273Z,65.87
2023-05-06T16:33:56.642Z,66.68
2023-05-06T16:36:24.302Z,67.29
2023-05-06T16:38:51.606Z,68.17
2023-05-06T16:41:19.117Z,68.65
2023-05-06T16:43:46.472Z,69.27
2023-05-06T16:46:14.717Z,69.43
2023-05-06T16:48:42.076Z,68.31
2023-05-06T16:51:10.591Z,68.39
2023-05-06T16:53:37.871Z,69.23
2023-05-06T16:56:05.670Z,68.06
2023-05-06T16:58:33.304Z,69.90
2023-05-06T17:01:01.054Z,69.29
2023-05-06T17:03:28.383Z,70.25
2023-05-06T17:05:55.895Z,69.52
2023-05-06T17:08:24.461Z,72.02
2023-05-06T17:10:54.313Z,71.93
2023-05-06T17:13:21.550Z,71.60
2023-05-06T17:15:49.308Z,71.87
2023-05-06T17:18:16.577Z,71.29
2023-05-06T17:20:54.839Z,71.25
2023-05-06T17:23:24.515Z,71.07
2023-05-06T17:25:52.101Z,71.24
2023-05-06T17:28:19.428Z,72.56
2023-05-06T17:30:47.109Z,74.53
2023-05-06T17:33:14.514Z,73.42
2023-05-06T17:35:42.006Z,73.36
2023-05-06T17:38:11.943Z,72.75
2023-05-06T17:40:39.550Z,73.00
2023-05-06T17:43:07.465Z,73.45
2023-05-06T17:45:35.152Z,72.99
2023-05-06T17:48:02.522Z,73.94
2023-05-06T17:50:30.328Z,74.72
2023-05-06T17:52:57.705Z,74.53
2023-05-06T17:55:25.425Z,75.77
2023-05-06T17:57:52.883Z,75.50
2023-05-06T18:00:21.651Z,74.76
2023-05-06T18:02:49.181Z,75.25
2023-05-06T18:05:17.710Z,75.98
2023-05-06T18:07:45.193Z,75.91
2023-05-06T18:10:12.803Z,77.23
2023-05-06T18:12:40.508Z,77.62
2023-05-06T18:15:09.066Z,78.98
2023-05-06T18:17:36.700Z,79.49
2023-05-06T18:20:06.578Z,80.31
2023-05-06T18:22:34.807Z,80.96
2023-05-06T18:25:02.685Z,80.81
2023-05-06T18:27:32.299Z,81.61
2023-05-06T18:29:59.601Z,81.98
2023-05-06T18:32:27.156Z,83.24
2023-05-06T18:34:55.315Z,83.91
2023-05-06T18:37:22.873Z,84.39
2023-05-06T18:39:50.367Z,84.33
2023-05-06T18:42:18.044Z,85.58
2023-05-06T18:44:45.252Z,85.65
2023-05-06T18:47:12.775Z,85.39
2023-05-06T18:49:39.951Z,85.57
2023-05-06T18:52:08.460Z,85.91
2023-05-06T18:54:35.643Z,85.90
2023-05-06T18:57:03.276Z,86.15
2023-05-06T18:59:30.784Z,86.05
2023-05-06T19:01:58.432Z,86.42
2023-05-06T19:04:26.193Z,86.41
2023-05-06T19:06:54.026Z,86.90
2023-05-06T19:09:21.481Z,86.67
2023-05-06T19:11:48.984Z,86.41
2023-05-06T19:14:16.192Z,87.67
2023-05-06T19:16:43.760Z,88.09
2023-05-06T19:19:11.407Z,88.91
2023-05-06T19:21:38.961Z,88.74
2023-05-06T19:24:06.629Z,89.00
2023-05-06T19:26:34.278Z,89.76
2023-05-06T19:29:01.623Z,90.45
2023-05-06T19:31:29.291Z,90.89
2023-05-06T19:33:56.858Z,91.68
2023-05-06T19:36:24.375Z,90.83
2023-05-06T19:38:52.005Z,91.13
2023-05-06T19:41:19.759Z,91.20
2023-05-06T19:43:47.063Z,91.62
2023-05-06T19:46:16.208Z,92.09
2023-05-06T19:48:43.435Z,93.45
2023-05-06T19:51:10.961Z,94.31
2023-05-06T19:53:38.324Z,94.33
2023-05-06T19:56:10.340Z,94.21
2023-05-06T19:58:38.032Z,95.59
2023-05-06T20:01:05.635Z,96.19
2023-05-06T20:03:33.172Z,96.91
2023-05-06T20:06:00.849Z,96.58
2023-05-06T20:08:28.186Z,98.06
2023-05-06T20:10:55.945Z,98.55
2023-05-06T20:13:23.276Z,98.95
2023-05-06T20:15:51.090Z,99.16
2023-05-06T20:18:18.426Z,99.22
2023-05-06T20:20:47.251Z,100.00
2023-05-06T20:23:14.521Z,100.00
2023-05-06T20:25:42.057Z,100.00
2023-05-06T20:28:09.392Z,100.00
2023-05-06T20:30:38.486Z,100.00
2023-05-06T20:33:06.136Z,100.00
2023-05-06T20:35:38.355Z,100.00
2023-05-06T20:38:06.642Z,100.00
2023-05-06T20:40:35.820Z,100.00
2023-05-06T20:43:03.304Z,100.00
2023-05-06T20:45:31.573Z,100.00
2023-05-06T20:48:00.076Z,100.00
2023-05-06T20:50:29.621Z,100.00
2023-05-06T20:52:57.183Z,100.00
2023-05-06T20:55:25.849Z,100.00
2023-05-06T20:57:53.310Z,100.00
2023-05-06T21:00:21.477Z,100.00
2023-05-06T21:02:48.857Z,100.00
2023-05-06T21:05:16.855Z,100.00
2023-05-06T21:07:44.186Z,100.00
2023-05-06T21:10:11.761Z,100.00
2023-05-06T21:12:39.196Z,100.00
2023-05-06T21:15:07.298Z,100.00
2023-05-06T21:17:34.982Z,100.00
2023-05-06T21:20:04.184Z,100.00
2023-05-06T21:22:33.318Z,100.00
2023-05-06T21:25:01.139Z,100.00
2023-05-06T21:27:28.468Z,100.00
2023-05-06T21:29:56.851Z,100.00
2023-05-06T21:32:24.383Z,100.00
2023-05-06T21:34:52.070Z,100.00
2023-05-06T21:37:19.267Z,100.00
2023-05-06T21:39:46.811Z,100.00
2023-05-06T21:42:14.062Z,100.00
2023-05-06T21:44:41.550Z,100.00
2023-05-06T21:47:09.568Z,100.00
2023-05-06T21:49:37.331Z,100.00
2023-05-06T21:52:06.423Z,100.00
2023-05-06T21:54:33.924Z,100.00
2023-05-06T21:57:01.174Z,100.00
2023-05-06T21:59:28.795Z,100.00
2023-05-06T22:01:56.165Z,100.00
2023-05-06T22:04:23.916Z,100.00
2023-05-06T22:06:51.181Z,100.00
2023-05-06T22:09:20.984Z,100.00
2023-05-06T22:11:48.240Z,100.00
2023-05-06T22:14:17.084Z,100.00
2023-05-06T22:16:47.453Z,100.00
2023-05-06T22:19:15.182Z,100.00
2023-05-06T22:21:42.456Z,100.00
2023-05-06T22:24:10.035Z,100.00
2023-05-06T22:26:37.277Z,100.00
2023-05-06T22:29:04.857Z,97.57
2023-05-06T22:31:32.309Z,94.94
2023-05-06T22:34:04.489Z,91.13
2023-05-06T22:36:34.480Z,92.04
2023-05-06T22:39:02.819Z,92.18
2023-05-06T22:41:30.811Z,90.58
2023-05-06T22:43:59.837Z,88.08
2023-05-06T22:46:28.133Z,87.00
2023-05-06T22:48:55.845Z,85.25
2023-05-06T22:51:23.451Z,85.03
2023-05-06T22:53:51.023Z,83.96
2023-05-06T22:56:20.014Z,83.03
2023-05-06T22:58:47.654Z,85.25
2023-05-06T23:01:14.944Z,82.58
2023-05-06T23:03:42.543Z,83.07
2023-05-06T23:06:11.460Z,82.40
2023-05-06T23:08:39.046Z,82.63
2023-05-06T23:11:06.296Z,83.43
2023-05-06T23:13:36.500Z,84.54
2023-05-06T23:16:03.971Z,84.71
2023-05-06T23:18:31.477Z,86.84
2023-05-06T23:20:58.801Z,86.10
2023-05-06T23:23:26.394Z,86.59
2023-05-06T23:25:53.626Z,86.17
2023-05-06T23:28:21.301Z,86.12
2023-05-06T23:30:48.641Z,86.25
2023-05-06T23:33:16.374Z,85.91
2023-05-06T23:35:44.095Z,83.85
2023-05-06T23:38:11.610Z,82.92
2023-05-06T23:40:38.823Z,81.68
2023-05-06T23:43:09.841Z,78.14
2023-05-06T23:45:37.651Z,76.86
2023-05-06T23:48:05.737Z,75.29
2023-05-06T23:50:33.030Z,73.83
2023-05-06T23:53:00.708Z,74.40
2023-05-06T23:55:28.973Z,75.19
2023-05-06T23:57:56.739Z,74.76
